Polaris — JD2797 — position and weather

sailwx.info

Track history (hours):
 
Tides and Currents Weather Stations Pressure Air Temp Water Temp Dewpoint Dewpoint Depression Visibility Wind Speed Wind Dir Waves Ship Positions

Polaris

Last reported at 2017-Feb-22 08:33 UTC. Time now 2017-Feb-22 22:06 UTC.
Position N 35°18' E 139°41'.

Length 30 m; draft 2.6 m.

Type: Pilot. MMSI: 431000764.

Date/timePositionNaut miles runAvg speedWind from/ knotsBaromVisibWave heightAir tempDewpointWater temp
2017-Feb-22 08:33N 35°18' E 139°41'3 2.8
2017-Feb-22 07:33N 35°18' E 139°44'7 7.0
2017-Feb-22 06:33N 35°24' E 139°48'4 3.6
2017-Feb-22 05:29N 35°22' E 139°52'1112.3
2017-Feb-22 04:34N 35°27' E 139°39'3 3.3
2017-Feb-22 03:33N 35°25' E 139°42'7 6.9
2017-Feb-22 02:33N 35°19' E 139°38'0 0.0
2017-Feb-21 00:14N 35°19' E 139°38'710.2
2017-Feb-20 23:33N 35°15' E 139°45'8 8.2
2017-Feb-20 22:33N 35°22' E 139°42'3 3.3
2017-Feb-20 21:33N 35°25' E 139°45'5 5.0
2017-Feb-20 20:33N 35°20' E 139°44'1010.0
2017-Feb-20 19:33N 35°10' E 139°48'1110.7
2017-Feb-20 18:32N 35°19' E 139°39'1 0.0
2017-Feb-19 08:21N 35°19' E 139°38'810.1
2017-Feb-19 07:33N 35°24' E 139°46'1211.8
2017-Feb-19 06:33N 35°12' E 139°47'6 6.0
2017-Feb-19 05:33N 35°17' E 139°43'4 3.9
2017-Feb-19 04:30N 35°19' E 139°38'0 0.0
2017-Feb-19 03:12N 35°19' E 139°38'0 0.0
2017-Feb-19 02:26N 35°19' E 139°38'0 0.0
2017-Feb-19 01:25N 35°19' E 139°38'0 0.0
2017-Feb-18 23:26N 35°19' E 139°38'7 8.1
2017-Feb-18 22:33N 35°14' E 139°46'8 8.2
2017-Feb-18 21:33N 35°22' E 139°42'2 1.6
2017-Feb-18 20:34N 35°20' E 139°42'4 3.7
2017-Feb-18 19:33N 35°19' E 139°38'0 0.0
2017-Feb-18 18:33N 35°19' E 139°38'0 0.0
2017-Feb-18 17:32N 35°19' E 139°38'0 0.0
2017-Feb-18 16:17N 35°19' E 139°38'0 0.0
2017-Feb-18 15:29N 35°19' E 139°38'0 0.0
2017-Feb-18 14:29N 35°19' E 139°38'0 0.0
2017-Feb-18 10:28N 35°19' E 139°38'2 2.7
2017-Feb-18 09:33N 35°19' E 139°41'9 9.0
2017-Feb-18 08:33N 35°12' E 139°47'6 5.9
2017-Feb-18 07:33N 35°17' E 139°44'5 4.2
2017-Feb-18 06:26N 35°19' E 139°38'0 0.0
2017-Feb-18 05:33N 35°19' E 139°38'4 3.9
2017-Feb-18 04:33N 35°22' E 139°41'5 4.6
2017-Feb-18 03:34N 35°26' E 139°42'1211.9
2017-Feb-18 02:32N 35°15' E 139°47'4 3.7
2017-Feb-18 01:33N 35°11' E 139°47'1111.3
2017-Feb-18 00:33N 35°22' E 139°44'4 4.3
2017-Feb-17 23:33N 35°18' E 139°45'8 8.0
2017-Feb-17 22:33N 35°10' E 139°47'1110.6
2017-Feb-17 21:33N 35°19' E 139°40'1 0.0
2017-Feb-16 19:13N 35°19' E 139°38'6 9.4
2017-Feb-16 18:34N 35°16' E 139°45'6 5.8
2017-Feb-16 17:34N 35°21' E 139°42'2 2.4
2017-Feb-16 16:33N 35°23' E 139°41'5 4.8
2017-Feb-16 15:33N 35°19' E 139°38'0 0.0
2017-Feb-16 14:32N 35°19' E 139°38'0 0.0
2017-Feb-16 10:24N 35°19' E 139°38'0 0.0
2017-Feb-16 08:32N 35°19' E 139°38'4 4.3
2017-Feb-16 07:33N 35°19' E 139°43'7 6.2
2017-Feb-16 06:27N 35°13' E 139°46'8 0.2
2017-Feb-14 05:34N 35°21' E 139°42'1714.8
2017-Feb-14 04:24N 35°31' E 139°58'6 1.2
2017-Feb-13 23:33N 35°29' E 139°52'1414.2
2017-Feb-13 22:33N 35°19' E 139°40'1 0.9
2017-Feb-13 21:24N 35°19' E 139°38'0 0.0
2017-Feb-13 20:13N 35°19' E 139°38'0 0.0
2017-Feb-13 18:29N 35°19' E 139°38'0 0.0
2017-Feb-13 17:29N 35°19' E 139°38'0 0.0
2017-Feb-13 16:33N 35°19' E 139°38'0 0.0
2017-Feb-13 15:27N 35°19' E 139°38'0 0.0
2017-Feb-13 14:29N 35°19' E 139°38'0 0.0
2017-Feb-13 13:32N 35°19' E 139°38'0 0.0
2017-Feb-13 12:03N 35°19' E 139°38'0 0.0
2017-Feb-13 10:20N 35°19' E 139°38'0 0.0
2017-Feb-13 09:19N 35°19' E 139°38'0 0.0
2017-Feb-13 08:31N 35°19' E 139°38'0 0.0
2017-Feb-13 07:25N 35°19' E 139°38'0 0.0
2017-Feb-13 06:14N 35°19' E 139°38'810.1
2017-Feb-13 05:24N 35°13' E 139°46'1113.0
2017-Feb-13 04:34N 35°24' E 139°42'2 2.2
2017-Feb-13 03:34N 35°21' E 139°43'5 2.2
2017-Feb-13 01:32N 35°19' E 139°38'0 0.0
2017-Feb-13 00:30N 35°19' E 139°38'0 0.0
2017-Feb-12 23:33N 35°19' E 139°38'6 5.8
2017-Feb-12 22:34N 35°16' E 139°45'5 5.0
2017-Feb-12 21:33N 35°21' E 139°43'6 6.4
2017-Feb-12 20:34N 35°27' E 139°43'9 9.3
2017-Feb-12 19:33N 35°19' E 139°38'0 0.0
2017-Feb-12 17:33N 35°19' E 139°38'0 0.0
2017-Feb-12 16:33N 35°19' E 139°38'0 0.0
2017-Feb-12 15:33N 35°19' E 139°38'0 0.0
2017-Feb-12 14:33N 35°19' E 139°38'0 0.0
2017-Feb-12 13:33N 35°19' E 139°38'0 0.0
2017-Feb-12 12:32N 35°19' E 139°38'1 0.8
2017-Feb-12 11:33N 35°19' E 139°39'6 5.4
2017-Feb-12 10:30N 35°16' E 139°46'8 8.6
2017-Feb-12 09:33N 35°23' E 139°40'  
Track history (hours):
 
Tides and Currents Weather Stations Pressure Air Temp Water Temp Dewpoint Dewpoint Depression Visibility Wind Speed Wind Dir Waves Ship Positions

Polaris

Last reported at 2017-Feb-22 08:33 UTC. Time now 2017-Feb-22 22:06 UTC.
Position N 35°18' E 139°41'.

Length 30 m; draft 2.6 m.

Type: Pilot. MMSI: 431000764.

Date/timePositionNaut miles runAvg speedWind from/ knotsBaromVisibWave heightAir tempDewpointWater temp
2017-Feb-22 08:33N 35°18' E 139°41'3 2.8
2017-Feb-22 07:33N 35°18' E 139°44'7 7.0
2017-Feb-22 06:33N 35°24' E 139°48'4 3.6
2017-Feb-22 05:29N 35°22' E 139°52'1112.3
2017-Feb-22 04:34N 35°27' E 139°39'3 3.3
2017-Feb-22 03:33N 35°25' E 139°42'7 6.9
2017-Feb-22 02:33N 35°19' E 139°38'0 0.0
2017-Feb-21 00:14N 35°19' E 139°38'710.2
2017-Feb-20 23:33N 35°15' E 139°45'8 8.2
2017-Feb-20 22:33N 35°22' E 139°42'3 3.3
2017-Feb-20 21:33N 35°25' E 139°45'5 5.0
2017-Feb-20 20:33N 35°20' E 139°44'1010.0
2017-Feb-20 19:33N 35°10' E 139°48'1110.7
2017-Feb-20 18:32N 35°19' E 139°39'1 0.0
2017-Feb-19 08:21N 35°19' E 139°38'810.1
2017-Feb-19 07:33N 35°24' E 139°46'1211.8
2017-Feb-19 06:33N 35°12' E 139°47'6 6.0
2017-Feb-19 05:33N 35°17' E 139°43'4 3.9
2017-Feb-19 04:30N 35°19' E 139°38'0 0.0
2017-Feb-19 03:12N 35°19' E 139°38'0 0.0
2017-Feb-19 02:26N 35°19' E 139°38'0 0.0
2017-Feb-19 01:25N 35°19' E 139°38'0 0.0
2017-Feb-18 23:26N 35°19' E 139°38'7 8.1
2017-Feb-18 22:33N 35°14' E 139°46'8 8.2
2017-Feb-18 21:33N 35°22' E 139°42'2 1.6
2017-Feb-18 20:34N 35°20' E 139°42'4 3.7
2017-Feb-18 19:33N 35°19' E 139°38'0 0.0
2017-Feb-18 18:33N 35°19' E 139°38'0 0.0
2017-Feb-18 17:32N 35°19' E 139°38'0 0.0
2017-Feb-18 16:17N 35°19' E 139°38'0 0.0
2017-Feb-18 15:29N 35°19' E 139°38'0 0.0
2017-Feb-18 14:29N 35°19' E 139°38'0 0.0
2017-Feb-18 10:28N 35°19' E 139°38'2 2.7
2017-Feb-18 09:33N 35°19' E 139°41'9 9.0
2017-Feb-18 08:33N 35°12' E 139°47'6 5.9
2017-Feb-18 07:33N 35°17' E 139°44'5 4.2
2017-Feb-18 06:26N 35°19' E 139°38'0 0.0
2017-Feb-18 05:33N 35°19' E 139°38'4 3.9
2017-Feb-18 04:33N 35°22' E 139°41'5 4.6
2017-Feb-18 03:34N 35°26' E 139°42'1211.9
2017-Feb-18 02:32N 35°15' E 139°47'4 3.7
2017-Feb-18 01:33N 35°11' E 139°47'1111.3
2017-Feb-18 00:33N 35°22' E 139°44'4 4.3
2017-Feb-17 23:33N 35°18' E 139°45'8 8.0
2017-Feb-17 22:33N 35°10' E 139°47'1110.6
2017-Feb-17 21:33N 35°19' E 139°40'1 0.0
2017-Feb-16 19:13N 35°19' E 139°38'6 9.4
2017-Feb-16 18:34N 35°16' E 139°45'6 5.8
2017-Feb-16 17:34N 35°21' E 139°42'2 2.4
2017-Feb-16 16:33N 35°23' E 139°41'5 4.8
2017-Feb-16 15:33N 35°19' E 139°38'0 0.0
2017-Feb-16 14:32N 35°19' E 139°38'0 0.0
2017-Feb-16 10:24N 35°19' E 139°38'0 0.0
2017-Feb-16 08:32N 35°19' E 139°38'4 4.3
2017-Feb-16 07:33N 35°19' E 139°43'7 6.2
2017-Feb-16 06:27N 35°13' E 139°46'8 0.2
2017-Feb-14 05:34N 35°21' E 139°42'1714.8
2017-Feb-14 04:24N 35°31' E 139°58'6 1.2
2017-Feb-13 23:33N 35°29' E 139°52'1414.2
2017-Feb-13 22:33N 35°19' E 139°40'1 0.9
2017-Feb-13 21:24N 35°19' E 139°38'0 0.0
2017-Feb-13 20:13N 35°19' E 139°38'0 0.0
2017-Feb-13 18:29N 35°19' E 139°38'0 0.0
2017-Feb-13 17:29N 35°19' E 139°38'0 0.0
2017-Feb-13 16:33N 35°19' E 139°38'0 0.0
2017-Feb-13 15:27N 35°19' E 139°38'0 0.0
2017-Feb-13 14:29N 35°19' E 139°38'0 0.0
2017-Feb-13 13:32N 35°19' E 139°38'0 0.0
2017-Feb-13 12:03N 35°19' E 139°38'0 0.0
2017-Feb-13 10:20N 35°19' E 139°38'0 0.0
2017-Feb-13 09:19N 35°19' E 139°38'0 0.0
2017-Feb-13 08:31N 35°19' E 139°38'0 0.0
2017-Feb-13 07:25N 35°19' E 139°38'0 0.0
2017-Feb-13 06:14N 35°19' E 139°38'810.1
2017-Feb-13 05:24N 35°13' E 139°46'1113.0
2017-Feb-13 04:34N 35°24' E 139°42'2 2.2
2017-Feb-13 03:34N 35°21' E 139°43'5 2.2
2017-Feb-13 01:32N 35°19' E 139°38'0 0.0
2017-Feb-13 00:30N 35°19' E 139°38'0 0.0
2017-Feb-12 23:33N 35°19' E 139°38'6 5.8
2017-Feb-12 22:34N 35°16' E 139°45'5 5.0
2017-Feb-12 21:33N 35°21' E 139°43'6 6.4
2017-Feb-12 20:34N 35°27' E 139°43'9 9.3
2017-Feb-12 19:33N 35°19' E 139°38'0 0.0
2017-Feb-12 17:33N 35°19' E 139°38'0 0.0
2017-Feb-12 16:33N 35°19' E 139°38'0 0.0
2017-Feb-12 15:33N 35°19' E 139°38'0 0.0
2017-Feb-12 14:33N 35°19' E 139°38'0 0.0
2017-Feb-12 13:33N 35°19' E 139°38'0 0.0
2017-Feb-12 12:32N 35°19' E 139°38'1 0.8
2017-Feb-12 11:33N 35°19' E 139°39'6 5.4
2017-Feb-12 10:30N 35°16' E 139°46'8 8.6
2017-Feb-12 09:33N 35°23' E 139°40'  

Dump ship's entire track history